Time;durP1;ratioP1;P1;durP2;ratioP2;P2;SDS_P1;SDS_P2;PMS_P1;PMS_P2;Temp;Humidity;BMP_temperature;BMP_pressure;BME280_temperature;BME280_humidity;BME280_pressure;Samples;Min_cycle;Max_cycle;Signal;HPM_P1;HPM_P2
2022/07/13 00:00:37;;;;;;;1.83;1.10;;;17.40;99.90;;;;;;5056306;28;20169;-79
2022/07/13 00:03:03;;;;;;;1.30;1.20;;;17.40;99.90;;;;;;5056671;28;20208;-79
2022/07/13 00:05:28;;;;;;;2.37;1.00;;;17.40;99.90;;;;;;5056330;28;20366;-81
2022/07/13 00:07:54;;;;;;;1.47;1.27;;;17.30;99.90;;;;;;5056142;28;20430;-81
2022/07/13 00:10:20;;;;;;;2.50;1.07;;;17.30;99.90;;;;;;5055618;28;20180;-81
2022/07/13 00:12:45;;;;;;;3.00;1.00;;;17.30;99.90;;;;;;5056182;28;20168;-81
2022/07/13 00:15:11;;;;;;;1.37;1.13;;;17.20;99.90;;;;;;5054776;28;20173;-80
2022/07/13 00:17:37;;;;;;;2.97;1.17;;;17.20;99.90;;;;;;5057281;28;20552;-81
2022/07/13 00:20:03;;;;;;;2.43;1.17;;;17.20;99.90;;;;;;5056789;28;20197;-78
2022/07/13 00:22:29;;;;;;;2.43;1.10;;;17.10;99.90;;;;;;5056630;28;20165;-81
2022/07/13 00:24:54;;;;;;;3.23;0.93;;;17.10;99.90;;;;;;5055366;28;20442;-80
2022/07/13 00:27:20;;;;;;;4.20;1.70;;;17.10;99.90;;;;;;5054870;28;20197;-80
2022/07/13 00:29:45;;;;;;;1.00;0.90;;;17.10;99.90;;;;;;5055271;28;20181;-81
2022/07/13 00:32:11;;;;;;;1.20;0.90;;;17.10;99.90;;;;;;5056381;28;20188;-81
2022/07/13 00:34:36;;;;;;;1.87;1.40;;;17.10;99.90;;;;;;5056072;28;20180;-78
2022/07/13 00:37:02;;;;;;;1.20;1.10;;;17.10;99.90;;;;;;5055909;28;20204;-79
2022/07/13 00:39:28;;;;;;;5.80;1.30;;;17.10;99.90;;;;;;5054549;28;20216;-80
2022/07/13 00:41:53;;;;;;;1.00;0.90;;;17.10;99.90;;;;;;5044819;28;20545;-78
2022/07/13 00:44:19;;;;;;;1.83;1.40;;;17.10;99.90;;;;;;5035929;28;20185;-77
2022/07/13 00:46:52;;;;;;;1.13;1.03;;;17.10;99.90;;;;;;5051452;28;20204;-80
2022/07/13 00:49:18;;;;;;;1.07;0.97;;;17.00;99.90;;;;;;5055676;28;20204;-80
2022/07/13 00:51:43;;;;;;;4.60;1.10;;;16.90;99.90;;;;;;5055782;28;20857;-78
2022/07/13 00:54:10;;;;;;;1.60;1.00;;;16.80;99.90;;;;;;5055929;28;20184;-82
2022/07/13 00:56:36;;;;;;;1.70;1.47;;;16.80;99.90;;;;;;5055294;28;20203;-79
2022/07/13 00:59:05;;;;;;;1.67;1.57;;;16.80;99.90;;;;;;5055893;28;20511;-79
2022/07/13 01:01:30;;;;;;;2.37;1.20;;;16.90;99.90;;;;;;5053127;28;20431;-79
2022/07/13 01:03:56;;;;;;;1.93;1.63;;;16.90;99.90;;;;;;5052472;28;20415;-83
2022/07/13 01:06:23;;;;;;;1.80;1.17;;;17.00;99.90;;;;;;5053639;28;20216;-79
2022/07/13 01:08:48;;;;;;;1.67;1.03;;;17.10;99.90;;;;;;5055344;28;20442;-79
2022/07/13 01:11:14;;;;;;;1.50;1.40;;;17.20;99.90;;;;;;5043404;28;20170;-80
2022/07/13 01:13:40;;;;;;;4.20;2.13;;;17.20;99.90;;;;;;5036468;28;20174;-79
2022/07/13 01:16:08;;;;;;;3.10;2.53;;;17.30;99.90;;;;;;5035898;28;20204;-83
2022/07/13 01:18:34;;;;;;;1.60;1.50;;;17.40;99.90;;;;;;5036058;28;20456;-80
2022/07/13 01:21:00;;;;;;;1.83;1.70;;;17.40;99.90;;;;;;5036139;28;20909;-81
2022/07/13 01:23:26;;;;;;;3.80;2.10;;;17.30;99.90;;;;;;5033119;28;20421;-80
2022/07/13 01:25:56;;;;;;;3.30;2.37;;;17.30;99.90;;;;;;5036924;28;20207;-79
2022/07/13 01:28:22;;;;;;;2.83;2.20;;;17.30;99.90;;;;;;5039222;28;20535;-82
2022/07/13 01:30:48;;;;;;;1.93;1.60;;;17.30;99.90;;;;;;5040384;28;20435;-79
2022/07/13 01:33:13;;;;;;;3.90;1.40;;;17.30;99.90;;;;;;5038668;28;20413;-81
2022/07/13 01:35:39;;;;;;;1.53;1.43;;;17.40;99.90;;;;;;5037790;28;20686;-78
2022/07/13 01:38:04;;;;;;;2.30;1.53;;;17.50;99.90;;;;;;5039259;28;20189;-79
2022/07/13 01:40:30;;;;;;;2.73;2.10;;;17.40;99.90;;;;;;5039230;28;20201;-82
2022/07/13 01:42:56;;;;;;;3.10;2.27;;;17.40;99.90;;;;;;5038788;28;20174;-79
2022/07/13 01:45:23;;;;;;;1.50;1.40;;;17.40;99.90;;;;;;5038359;28;20637;-82
2022/07/13 01:47:54;;;;;;;1.80;1.70;;;17.40;99.90;;;;;;5048401;28;20211;-81
2022/07/13 01:50:21;;;;;;;1.80;1.60;;;17.40;99.90;;;;;;5059094;28;20860;-80
2022/07/13 01:52:48;;;;;;;1.47;1.30;;;17.40;99.90;;;;;;5056717;28;20518;-79
2022/07/13 01:55:14;;;;;;;2.07;1.37;;;17.20;99.90;;;;;;5046815;28;20999;-79
2022/07/13 01:57:40;;;;;;;6.87;1.47;;;16.90;99.90;;;;;;5039324;28;20440;-81
2022/07/13 02:00:15;;;;;;;2.60;1.57;;;16.80;99.90;;;;;;5039148;28;20460;-79
2022/07/13 02:02:42;;;;;;;1.47;1.33;;;16.70;99.90;;;;;;5056545;28;20411;-80
2022/07/13 02:05:09;;;;;;;1.77;1.63;;;16.70;99.90;;;;;;5050288;28;20400;-79
2022/07/13 02:07:35;;;;;;;4.23;1.70;;;16.80;99.90;;;;;;5059007;28;20435;-83
2022/07/13 02:10:01;;;;;;;1.40;1.30;;;16.90;99.90;;;;;;5056331;28;20418;-80
2022/07/13 02:12:27;;;;;;;2.23;2.03;;;17.00;99.90;;;;;;5053580;28;20506;-79
2022/07/13 02:14:52;;;;;;;1.57;1.30;;;17.10;99.90;;;;;;5046242;28;20622;-77
2022/07/13 02:17:18;;;;;;;2.90;2.13;;;17.10;99.90;;;;;;5056579;28;20235;-78
2022/07/13 02:19:43;;;;;;;2.00;1.73;;;17.10;99.90;;;;;;5058747;28;20197;-81
2022/07/13 02:22:09;;;;;;;2.70;1.63;;;17.00;99.90;;;;;;5058550;28;20166;-81
2022/07/13 02:24:34;;;;;;;2.03;1.80;;;17.00;99.90;;;;;;5059118;28;20208;-79
2022/07/13 02:27:00;;;;;;;2.40;1.40;;;17.00;99.90;;;;;;5057880;28;20189;-77
2022/07/13 02:29:26;;;;;;;2.80;2.13;;;16.80;99.90;;;;;;5058312;28;20207;-82
2022/07/13 02:31:51;;;;;;;1.90;1.70;;;16.70;99.90;;;;;;5059429;28;20228;-81
2022/07/13 02:34:17;;;;;;;2.40;2.20;;;16.50;99.90;;;;;;5058676;28;20174;-80
2022/07/13 02:36:43;;;;;;;2.37;2.10;;;16.40;99.90;;;;;;5056502;28;20211;-81
2022/07/13 02:39:08;;;;;;;2.60;2.00;;;16.40;99.90;;;;;;5058514;28;20204;-79
2022/07/13 02:41:34;;;;;;;2.60;1.90;;;16.30;99.90;;;;;;5059013;28;20429;-83
2022/07/13 02:43:59;;;;;;;9.23;2.53;;;16.30;99.90;;;;;;5058116;28;20498;-81
2022/07/13 02:46:25;;;;;;;2.33;2.03;;;16.30;99.90;;;;;;5056433;28;20212;-79
2022/07/13 02:48:51;;;;;;;2.30;2.10;;;;;;;;;;5057836;28;20161;-78
2022/07/13 02:51:16;;;;;;;2.47;2.30;;;16.10;99.90;;;;;;5052952;28;20673;-83
2022/07/13 02:53:42;;;;;;;3.13;2.03;;;16.10;99.90;;;;;;5054703;28;20415;-82
2022/07/13 02:56:07;;;;;;;3.60;2.10;;;16.20;99.90;;;;;;5051728;28;20208;-84
2022/07/13 02:58:33;;;;;;;6.70;2.23;;;16.20;99.90;;;;;;5044138;28;20202;-80
2022/07/13 03:00:59;;;;;;;5.23;2.17;;;16.20;99.90;;;;;;5041718;28;20654;-83
2022/07/13 03:03:24;;;;;;;2.40;1.87;;;16.10;99.90;;;;;;5046932;28;20170;-85
2022/07/13 03:05:50;;;;;;;2.43;2.20;;;16.10;99.90;;;;;;5043493;28;20209;-82
2022/07/13 03:08:16;;;;;;;3.67;2.33;;;16.10;99.90;;;;;;5038308;28;20198;-84
2022/07/13 03:10:42;;;;;;;3.13;2.33;;;16.20;99.90;;;;;;5043270;28;20478;-81
2022/07/13 03:13:07;;;;;;;2.10;1.80;;;16.20;99.90;;;;;;5042371;28;20237;-83
2022/07/13 03:15:33;;;;;;;2.90;2.40;;;16.20;99.90;;;;;;5043359;28;20763;-85
2022/07/13 03:17:58;;;;;;;3.10;2.17;;;16.20;99.90;;;;;;5039059;28;20391;-86
2022/07/13 03:20:24;;;;;;;1.97;1.83;;;16.10;99.90;;;;;;5044220;28;20319;-86
2022/07/13 03:22:50;;;;;;;2.77;2.13;;;16.10;99.90;;;;;;5048390;28;20200;-84
2022/07/13 03:25:15;;;;;;;3.67;1.67;;;15.90;99.90;;;;;;5050409;28;20176;-84
2022/07/13 03:27:41;;;;;;;3.40;2.30;;;15.90;99.90;;;;;;5047411;28;20618;-80
2022/07/13 03:30:07;;;;;;;2.60;2.10;;;18.30;99.90;;;;;;5052927;28;20181;-82
2022/07/13 03:32:33;;;;;;;3.60;2.20;;;15.70;99.90;;;;;;5047910;28;20192;-83
2022/07/13 03:34:58;;;;;;;3.10;2.00;;;15.70;99.90;;;;;;5047876;28;20952;-80
2022/07/13 03:37:24;;;;;;;2.03;1.80;;;15.60;99.90;;;;;;5043757;28;20208;-83
2022/07/13 03:39:49;;;;;;;5.53;2.27;;;15.60;99.90;;;;;;5042224;28;20292;-82
2022/07/13 03:42:15;;;;;;;3.13;2.43;;;15.60;99.90;;;;;;5042565;28;20178;-84
2022/07/13 03:44:40;;;;;;;3.23;2.40;;;15.60;99.90;;;;;;5051142;28;20182;-81
2022/07/13 03:47:06;;;;;;;2.50;2.30;;;15.60;99.90;;;;;;5038892;28;20214;-79
2022/07/13 03:49:31;;;;;;;4.63;2.10;;;15.70;99.90;;;;;;5040965;28;20229;-83
2022/07/13 03:51:57;;;;;;;5.30;1.77;;;15.70;99.90;;;;;;5045113;28;20184;-82
2022/07/13 03:54:22;;;;;;;2.33;2.03;;;15.60;99.90;;;;;;5044276;28;20189;-85
2022/07/13 03:56:48;;;;;;;2.60;2.33;;;15.60;99.90;;;;;;5054137;28;20764;-84
2022/07/13 03:59:14;;;;;;;4.07;2.43;;;15.50;99.90;;;;;;5049797;28;20247;-85
2022/07/13 04:01:40;;;;;;;3.90;1.90;;;15.40;99.90;;;;;;5039907;28;20793;-83
2022/07/13 04:04:06;;;;;;;6.43;1.93;;;15.30;99.90;;;;;;5055610;28;20228;-82
2022/07/13 04:06:32;;;;;;;5.63;2.20;;;15.20;99.90;;;;;;5053122;28;20448;-83
2022/07/13 04:08:58;;;;;;;3.33;2.77;;;15.30;99.90;;;;;;5047831;28;20177;-84
2022/07/13 04:11:25;;;;;;;2.87;2.20;;;15.40;99.90;;;;;;5052053;28;20465;-85
2022/07/13 04:13:51;;;;;;;3.63;2.10;;;15.50;99.90;;;;;;5049412;28;20928;-83
2022/07/13 04:16:17;;;;;;;3.37;2.63;;;15.50;99.90;;;;;;5043776;28;20467;-84
2022/07/13 04:18:42;;;;;;;4.33;2.00;;;15.70;99.90;;;;;;5046842;28;20296;-82
2022/07/13 04:21:08;;;;;;;5.03;2.30;;;15.80;99.90;;;;;;5046796;28;20188;-82
2022/07/13 04:23:33;;;;;;;3.93;2.10;;;15.90;99.90;;;;;;5048788;28;20181;-81
2022/07/13 04:25:59;;;;;;;2.47;2.27;;;16.70;99.90;;;;;;5052998;28;20180;-81
2022/07/13 04:28:25;;;;;;;4.20;2.40;;;18.50;99.90;;;;;;5048896;28;20173;-83
2022/07/13 04:30:51;;;;;;;2.67;2.43;;;20.80;99.90;;;;;;5050836;28;20208;-81
2022/07/13 04:33:16;;;;;;;2.00;1.70;;;23.00;99.90;;;;;;5050336;28;20633;-82
2022/07/13 04:35:42;;;;;;;11.23;2.60;;;24.80;99.90;;;;;;5052994;28;20504;-81
2022/07/13 04:38:07;;;;;;;2.20;1.87;;;25.80;99.90;;;;;;5045499;28;20792;-81
2022/07/13 04:40:33;;;;;;;2.27;2.07;;;27.40;99.90;;;;;;5042475;28;20204;-82
2022/07/13 04:42:58;;;;;;;2.80;1.73;;;27.20;99.90;;;;;;5042857;28;20173;-82
2022/07/13 04:45:24;;;;;;;3.00;2.23;;;26.30;99.90;;;;;;5040003;28;20249;-80
2022/07/13 04:47:49;;;;;;;7.13;2.20;;;25.50;99.90;;;;;;5043247;28;20239;-82
2022/07/13 04:50:15;;;;;;;4.00;2.03;;;25.60;99.90;;;;;;5040681;28;20212;-81
2022/07/13 04:52:42;;;;;;;4.70;2.70;;;24.20;99.90;;;;;;5040040;28;20737;-83
2022/07/13 04:55:09;;;;;;;5.63;2.93;;;22.80;99.90;;;;;;5042928;28;20447;-82
2022/07/13 04:57:35;;;;;;;3.90;2.63;;;21.80;99.90;;;;;;5041640;28;20211;-85
2022/07/13 05:00:00;;;;;;;3.07;2.10;;;20.90;99.90;;;;;;5047673;28;20891;-83
2022/07/13 05:02:26;;;;;;;4.20;2.23;;;20.60;99.90;;;;;;5041954;28;20447;-83
2022/07/13 05:04:52;;;;;;;4.07;2.57;;;20.20;99.90;;;;;;5044751;28;20189;-82
2022/07/13 05:07:17;;;;;;;4.50;2.90;;;20.30;99.90;;;;;;5045293;28;20789;-82
2022/07/13 05:09:43;;;;;;;3.10;2.80;;;20.50;99.90;;;;;;5044761;28;20220;-83
2022/07/13 05:12:08;;;;;;;5.60;2.80;;;20.90;99.90;;;;;;5048032;28;20189;-83
2022/07/13 05:14:35;;;;;;;4.33;2.37;;;21.40;99.90;;;;;;5047642;28;20182;-83
2022/07/13 05:17:00;;;;;;;2.67;2.47;;;21.70;99.90;;;;;;5045120;28;20252;-82
2022/07/13 05:19:26;;;;;;;7.43;2.30;;;22.60;99.90;;;;;;5047247;28;20455;-82
2022/07/13 05:21:51;;;;;;;4.73;2.37;;;24.30;99.90;;;;;;5044515;28;20185;-83
2022/07/13 05:24:17;;;;;;;3.73;2.27;;;26.00;99.90;;;;;;5043210;28;20233;-84
2022/07/13 05:26:43;;;;;;;3.23;2.43;;;27.60;99.90;;;;;;5045274;28;20202;-85
2022/07/13 05:29:08;;;;;;;4.93;2.40;;;27.70;99.90;;;;;;5041621;28;20709;-83
2022/07/13 05:31:34;;;;;;;4.83;2.63;;;27.10;99.80;;;;;;5043733;28;20177;-81
2022/07/13 05:33:59;;;;;;;2.97;2.33;;;26.40;99.90;;;;;;5044068;28;20277;-83
2022/07/13 05:36:25;;;;;;;5.00;3.07;;;25.80;99.90;;;;;;5044747;28;20674;-83
2022/07/13 05:38:50;;;;;;;4.10;2.53;;;25.00;99.90;;;;;;5046077;28;20205;-82
2022/07/13 05:41:16;;;;;;;2.80;2.60;;;24.40;99.90;;;;;;5044346;28;20644;-82
2022/07/13 05:43:41;;;;;;;5.03;2.23;;;24.30;99.90;;;;;;5046014;28;20189;-83
2022/07/13 05:46:07;;;;;;;5.00;2.70;;;23.70;99.90;;;;;;5042584;28;20628;-83
2022/07/13 05:48:34;;;;;;;5.30;2.30;;;23.00;99.90;;;;;;5040912;28;20194;-83
2022/07/13 05:51:00;;;;;;;3.80;3.20;;;22.20;99.90;;;;;;5046239;28;20435;-83
2022/07/13 05:53:25;;;;;;;4.67;3.67;;;21.50;99.90;;;;;;5044824;28;20521;-83
2022/07/13 05:55:51;;;;;;;5.77;2.97;;;21.10;99.90;;;;;;5042666;28;20323;-83
2022/07/13 05:58:16;;;;;;;5.10;2.80;;;21.10;99.90;;;;;;5040057;28;20208;-82
2022/07/13 06:00:42;;;;;;;3.83;3.10;;;20.90;99.90;;;;;;5041484;28;20266;-84
2022/07/13 06:03:07;;;;;;;5.33;3.57;;;21.00;99.90;;;;;;5044234;28;20170;-83
2022/07/13 06:05:33;;;;;;;5.80;2.73;;;20.90;99.90;;;;;;5042383;28;20193;-83
2022/07/13 06:07:58;;;;;;;5.50;2.93;;;21.00;99.90;;;;;;5043693;28;20838;-82
2022/07/13 06:10:24;;;;;;;4.50;3.27;;;20.90;99.90;;;;;;5044697;28;20177;-83
2022/07/13 06:12:49;;;;;;;3.43;2.87;;;20.90;99.90;;;;;;5043320;28;20210;-83
2022/07/13 06:15:15;;;;;;;4.57;3.40;;;21.30;99.90;;;;;;5042567;28;20188;-83
2022/07/13 06:17:41;;;;;;;4.10;2.73;;;21.40;99.90;;;;;;5041848;28;20220;-83
2022/07/13 06:20:07;;;;;;;4.37;2.93;;;21.80;99.90;;;;;;5041985;28;20197;-83
2022/07/13 06:22:33;;;;;;;4.30;3.30;;;22.40;99.90;;;;;;5046960;28;20185;-84
2022/07/13 06:24:58;;;;;;;7.13;3.40;;;23.20;99.90;;;;;;5041133;28;20987;-83
2022/07/13 06:27:24;;;;;;;2.93;2.67;;;24.30;99.90;;;;;;5051240;28;20476;-83
2022/07/13 06:29:49;;;;;;;6.03;2.73;;;25.40;99.90;;;;;;5040075;28;20196;-83
2022/07/13 06:32:15;;;;;;;5.90;2.80;;;27.10;99.90;;;;;;5042629;28;20215;-83
2022/07/13 06:34:40;;;;;;;9.03;3.10;;;29.80;99.90;;;;;;5042417;28;20245;-85
2022/07/13 06:37:07;;;;;;;3.83;2.67;;;33.30;94.60;;;;;;5051156;28;20202;-84
2022/07/13 06:39:33;;;;;;;4.53;2.47;;;34.90;79.80;;;;;;5044716;28;20351;-82
2022/07/13 06:41:58;;;;;;;6.23;3.20;;;36.20;75.30;;;;;;5044024;28;20535;-83
2022/07/13 06:44:24;;;;;;;4.57;3.20;;;38.50;64.00;;;;;;5040909;28;20473;-84
2022/07/13 06:46:49;;;;;;;3.97;3.57;;;39.70;57.40;;;;;;5040849;28;20346;-83
2022/07/13 06:49:15;;;;;;;6.70;4.83;;;41.30;52.60;;;;;;5042335;28;20192;-81
2022/07/13 06:51:40;;;;;;;7.73;6.87;;;41.80;47.00;;;;;;5043851;28;20196;-83
2022/07/13 06:54:06;;;;;;;7.03;6.53;;;42.60;45.50;;;;;;5044360;28;20290;-82
2022/07/13 06:56:31;;;;;;;7.07;6.60;;;42.90;43.60;;;;;;5043635;28;20286;-84
2022/07/13 06:58:57;;;;;;;8.30;7.90;;;43.10;44.10;;;;;;5041419;28;20205;-83
2022/07/13 07:01:23;;;;;;;10.43;9.73;;;45.10;41.30;;;;;;5044221;28;20177;-81
2022/07/13 07:03:48;;;;;;;9.20;8.80;;;46.90;38.20;;;;;;5040962;28;20184;-84
2022/07/13 07:06:14;;;;;;;9.13;8.60;;;48.70;36.30;;;;;;5045163;28;20158;-84
2022/07/13 07:08:39;;;;;;;7.73;7.30;;;49.30;33.40;;;;;;5051238;28;21111;-83
2022/07/13 07:11:05;;;;;;;80.70;13.00;;;49.00;31.30;;;;;;5043744;28;20238;-81
2022/07/13 07:13:31;;;;;;;7.27;6.67;;;48.10;32.20;;;;;;5041726;28;20204;-83
2022/07/13 07:15:56;;;;;;;11.17;6.33;;;47.50;32.80;;;;;;5041934;28;20195;-84
2022/07/13 07:18:22;;;;;;;7.13;6.73;;;46.00;32.00;;;;;;5044281;28;20197;-83
2022/07/13 07:20:48;;;;;;;13.33;12.63;;;44.40;33.50;;;;;;5046579;28;20181;-84
2022/07/13 07:23:14;;;;;;;12.43;11.73;;;41.40;35.60;;;;;;5044665;28;20178;-83
2022/07/13 07:25:40;;;;;;;12.10;11.40;;;38.40;38.60;;;;;;5040706;28;20824;-83
2022/07/13 07:28:07;;;;;;;10.90;10.20;;;37.00;41.10;;;;;;5045631;28;20474;-82
2022/07/13 07:30:32;;;;;;;10.10;9.57;;;36.60;43.40;;;;;;5043523;28;20181;-82
2022/07/13 07:32:58;;;;;;;11.03;10.53;;;37.50;42.60;;;;;;5044697;28;20439;-84
2022/07/13 07:35:23;;;;;;;10.17;9.70;;;37.50;42.10;;;;;;5058656;28;20921;-83
2022/07/13 07:37:49;;;;;;;10.13;9.40;;;36.70;43.70;;;;;;5043130;28;20213;-82
2022/07/13 07:40:14;;;;;;;9.40;9.00;;;36.00;43.40;;;;;;5043586;28;20196;-84
2022/07/13 07:42:40;;;;;;;8.70;8.30;;;35.20;43.00;;;;;;5043040;28;20185;-83
2022/07/13 07:45:08;;;;;;;8.10;7.70;;;34.90;43.00;;;;;;5042080;28;20173;-82
2022/07/13 07:47:34;;;;;;;8.50;8.00;;;35.30;44.80;;;;;;5040264;28;20225;-82
2022/07/13 07:49:59;;;;;;;8.77;8.17;;;35.90;44.00;;;;;;5051184;28;20441;-82
2022/07/13 07:52:25;;;;;;;8.30;7.80;;;37.80;41.20;;;;;;5047695;28;20433;-83
2022/07/13 07:54:51;;;;;;;8.63;7.77;;;38.60;40.20;;;;;;5043955;28;20207;-83
2022/07/13 07:57:16;;;;;;;9.23;8.73;;;39.00;39.60;;;;;;5049962;28;20197;-82
2022/07/13 07:59:42;;;;;;;9.27;8.90;;;39.00;39.60;;;;;;5043060;28;21140;-83
2022/07/13 08:02:08;;;;;;;9.10;8.33;;;37.40;40.20;;;;;;5041017;28;20176;-83
2022/07/13 08:04:34;;;;;;;8.87;8.47;;;36.90;40.80;;;;;;5044686;28;20179;-83
2022/07/13 08:07:00;;;;;;;8.70;8.20;;;36.90;41.00;;;;;;5048350;28;20454;-84
2022/07/13 08:09:26;;;;;;;9.87;9.00;;;35.80;40.90;;;;;;5045298;28;20262;-85
2022/07/13 08:11:52;;;;;;;8.20;7.90;;;34.40;42.50;;;;;;5043607;28;20453;-83
2022/07/13 08:14:18;;;;;;;8.20;7.70;;;34.90;45.10;;;;;;5044353;28;20458;-84
2022/07/13 08:16:44;;;;;;;8.53;8.10;;;35.40;44.10;;;;;;5043802;28;20225;-84
2022/07/13 08:19:10;;;;;;;8.77;8.37;;;36.10;43.80;;;;;;5046859;28;20465;-83
2022/07/13 08:21:36;;;;;;;8.90;8.50;;;36.60;42.50;;;;;;5045767;28;20217;-85
2022/07/13 08:24:02;;;;;;;8.30;7.90;;;36.30;42.00;;;;;;5043262;28;20441;-82
2022/07/13 08:26:29;;;;;;;8.27;7.90;;;37.10;41.20;;;;;;5044586;28;20453;-83
2022/07/13 08:28:57;;;;;;;8.70;8.30;;;37.20;42.40;;;;;;5043425;28;20821;-83
2022/07/13 08:31:23;;;;;;;9.30;8.73;;;38.10;38.70;;;;;;5040376;28;20467;-83
2022/07/13 08:39:24;;;;;;;8.70;8.27;;;37.10;40.30;;;;;;5043389;28;20556;-82
2022/07/13 08:41:49;;;;;;;10.03;8.60;;;37.20;40.80;;;;;;5042832;28;20957;-84
2022/07/13 08:44:16;;;;;;;9.70;9.20;;;38.20;40.40;;;;;;5044289;28;20470;-85
2022/07/13 08:46:42;;;;;;;10.90;10.30;;;39.40;37.80;;;;;;5041578;28;20201;-83
2022/07/13 08:49:09;;;;;;;10.07;9.67;;;40.40;37.10;;;;;;5041637;28;20474;-84
2022/07/13 08:51:35;;;;;;;10.93;10.03;;;39.90;36.90;;;;;;5044732;28;20789;-82
2022/07/13 08:54:02;;;;;;;11.50;10.70;;;38.90;36.50;;;;;;5040941;28;20955;-82
2022/07/13 08:56:28;;;;;;;10.70;10.00;;;40.00;38.10;;;;;;5043347;28;20443;-82
2022/07/13 08:58:54;;;;;;;10.90;10.40;;;41.30;36.50;;;;;;5043628;28;20464;-84
2022/07/13 09:01:20;;;;;;;11.60;10.63;;;41.30;33.10;;;;;;5043828;28;20185;-84
2022/07/13 09:03:46;;;;;;;11.53;10.93;;;41.90;34.60;;;;;;5044372;28;20180;-83
2022/07/13 09:06:49;;;;;;;12.33;11.73;;;42.10;33.70;;;;;;5046053;28;20181;-84
2022/07/13 09:09:31;;;;;;;11.87;11.07;;;41.30;33.90;;;;;;5059847;28;20443;-81
2022/07/13 09:12:09;;;;;;;12.40;11.70;;;41.20;34.70;;;;;;5045137;28;20431;-84
2022/07/13 09:14:35;;;;;;;12.70;12.00;;;41.40;33.90;;;;;;5045578;28;20522;-84
2022/07/13 09:17:01;;;;;;;12.70;12.00;;;41.80;31.60;;;;;;5042805;28;20455;-85
2022/07/13 09:19:34;;;;;;;13.20;12.13;;;42.40;31.90;;;;;;5047165;28;20469;-84
2022/07/13 09:22:12;;;;;;;14.77;13.90;;;43.70;32.00;;;;;;5046403;28;20177;-84
2022/07/13 09:24:46;;;;;;;14.03;13.37;;;41.70;31.20;;;;;;5044416;28;20451;-83
2022/07/13 09:27:12;;;;;;;12.50;11.90;;;40.50;33.40;;;;;;5045687;28;20451;-83
2022/07/13 09:29:38;;;;;;;13.20;12.30;;;40.20;33.20;;;;;;5043986;28;20965;-83
2022/07/13 09:32:08;;;;;;;13.33;12.60;;;41.10;33.10;;;;;;5043055;28;20444;-82
2022/07/13 09:34:46;;;;;;;12.40;11.73;;;40.20;33.50;;;;;;5049214;28;20187;-82
2022/07/13 09:37:13;;;;;;;15.03;14.23;;;40.90;31.20;;;;;;5046323;28;20682;-83
2022/07/13 09:39:58;;;;;;;12.57;11.70;;;40.70;30.90;;;;;;5045847;28;20493;-84
2022/07/13 09:42:32;;;;;;;14.50;13.90;;;40.50;34.30;;;;;;5043447;28;20503;-83
2022/07/13 09:47:54;;;;;;;11.17;10.50;;;36.90;34.20;;;;;;5045296;28;20473;-83
2022/07/13 09:50:35;;;;;;;10.87;10.40;;;36.90;34.70;;;;;;5045017;28;20424;-82
2022/07/13 09:53:01;;;;;;;12.00;11.40;;;39.00;34.80;;;;;;5041959;28;20983;-83
2022/07/13 09:55:27;;;;;;;11.60;10.90;;;39.80;33.50;;;;;;5045319;28;20488;-82
2022/07/13 09:57:57;;;;;;;12.03;11.37;;;39.70;33.20;;;;;;5043514;28;20526;-82
2022/07/13 10:00:23;;;;;;;12.40;11.90;;;39.10;32.00;;;;;;5040179;28;20197;-83
2022/07/13 10:02:50;;;;;;;12.37;11.47;;;38.00;30.10;;;;;;5040703;28;21233;-81
2022/07/13 10:05:17;;;;;;;11.80;11.30;;;37.60;29.80;;;;;;5041706;28;20264;-82
2022/07/13 10:07:44;;;;;;;11.27;10.87;;;38.40;30.00;;;;;;5041987;28;20439;-83
2022/07/13 10:10:15;;;;;;;12.03;11.47;;;38.80;30.00;;;;;;5043827;28;20438;-84
2022/07/13 10:12:41;;;;;;;12.70;12.20;;;39.70;29.20;;;;;;5038931;28;20442;-84
2022/07/13 10:15:08;;;;;;;12.83;12.23;;;39.00;30.70;;;;;;5048696;28;20980;-81
2022/07/13 10:17:34;;;;;;;13.10;12.50;;;39.80;30.40;;;;;;5035615;28;20502;-83
2022/07/13 10:20:09;;;;;;;14.13;13.43;;;41.40;29.10;;;;;;5042783;28;20469;-83
2022/07/13 10:22:45;;;;;;;13.87;13.37;;;41.30;26.80;;;;;;5049936;28;20653;-82
2022/07/13 10:25:12;;;;;;;16.20;15.30;;;41.60;27.00;;;;;;5038545;28;20423;-82
2022/07/13 10:27:38;;;;;;;13.50;13.00;;;40.20;25.10;;;;;;5040663;28;20463;-84
2022/07/13 10:30:08;;;;;;;15.13;14.53;;;39.80;26.60;;;;;;5038492;28;20801;-83
2022/07/13 10:32:38;;;;;;;13.00;12.40;;;38.80;27.70;;;;;;5043875;28;20445;-82
2022/07/13 10:35:04;;;;;;;12.77;12.27;;;37.90;29.20;;;;;;5039248;28;21015;-82
2022/07/13 10:37:56;;;;;;;12.90;12.17;;;38.00;29.60;;;;;;5042726;28;20547;-82
2022/07/13 10:40:29;;;;;;;12.67;12.17;;;39.20;29.60;;;;;;5037077;28;20292;-83
2022/07/13 10:42:54;;;;;;;13.60;13.00;;;39.00;27.30;;;;;;5046615;28;20431;-81
2022/07/13 10:45:53;;;;;;;12.37;11.60;;;38.10;26.90;;;;;;5039873;28;20432;-83
2022/07/13 10:48:22;;;;;;;10.30;9.90;;;36.50;28.30;;;;;;5023001;28;20215;-84
2022/07/13 10:50:52;;;;;;;11.53;10.90;;;35.30;29.50;;;;;;5039375;28;21511;-81
2022/07/13 10:53:19;;;;;;;10.60;10.20;;;34.10;28.90;;;;;;5036509;28;20427;-83
2022/07/13 10:55:48;;;;;;;10.10;9.60;;;33.90;30.80;;;;;;5039634;28;20505;-84
2022/07/13 10:58:33;;;;;;;10.30;9.80;;;33.90;31.30;;;;;;5040623;28;21229;-82
2022/07/13 11:01:00;;;;;;;11.20;10.60;;;34.40;30.40;;;;;;5040039;28;21465;-81
2022/07/13 11:03:47;;;;;;;10.40;9.93;;;34.30;28.90;;;;;;5041345;28;21743;-80
2022/07/13 11:06:20;;;;;;;11.33;10.83;;;33.60;30.40;;;;;;5035734;28;20454;-83
2022/07/13 11:08:46;;;;;;;9.70;9.30;;;33.50;31.40;;;;;;5040077;28;20492;-81
2022/07/13 11:11:16;;;;;;;9.00;8.70;;;33.60;32.40;;;;;;5037716;28;20536;-79
2022/07/13 11:13:46;;;;;;;9.63;9.23;;;33.80;30.80;;;;;;5039254;28;20637;-81
2022/07/13 11:16:13;;;;;;;10.20;9.63;;;33.60;30.80;;;;;;5037589;28;21058;-81
2022/07/13 11:18:41;;;;;;;10.40;9.90;;;34.00;30.40;;;;;;5038482;28;20938;-83
2022/07/13 11:21:14;;;;;;;9.30;9.00;;;34.10;31.60;;;;;;5041631;28;20889;-81
2022/07/13 11:26:53;;;;;;;9.40;9.10;;;33.90;30.00;;;;;;5041237;28;20560;-81
2022/07/13 11:29:37;;;;;;;8.87;8.37;;;34.30;31.40;;;;;;5039939;28;20970;-78
2022/07/13 11:32:04;;;;;;;9.10;8.70;;;34.30;30.00;;;;;;5038739;28;20507;-81
2022/07/13 11:34:30;;;;;;;9.37;8.97;;;34.10;29.00;;;;;;5038413;28;20442;-81
2022/07/13 11:36:58;;;;;;;9.20;8.90;;;33.80;30.10;;;;;;5037426;28;20467;-84
2022/07/13 11:39:30;;;;;;;9.83;9.17;;;34.00;28.10;;;;;;5040279;28;20206;-83
2022/07/13 11:41:58;;;;;;;9.43;8.93;;;33.90;27.60;;;;;;5041230;28;20520;-82
2022/07/13 11:44:29;;;;;;;9.20;8.70;;;34.30;28.70;;;;;;5039537;28;20942;-82
2022/07/13 11:46:56;;;;;;;9.03;8.63;;;34.80;27.30;;;;;;5038169;28;20851;-80
2022/07/13 11:49:22;;;;;;;9.60;9.10;;;34.80;26.00;;;;;;5039241;28;20840;-81
2022/07/13 11:51:48;;;;;;;8.87;8.37;;;34.60;28.00;;;;;;5039132;28;20461;-84
2022/07/13 11:54:19;;;;;;;8.10;7.80;;;34.50;29.60;;;;;;5042188;28;21123;-85
2022/07/13 11:56:47;;;;;;;8.20;7.90;;;34.30;28.90;;;;;;5041092;28;20458;-82
2022/07/13 11:59:14;;;;;;;8.67;8.07;;;33.80;28.80;;;;;;5039978;28;20901;-82
2022/07/13 12:01:50;;;;;;;8.87;8.47;;;34.00;28.20;;;;;;5038429;28;20436;-83
2022/07/13 12:04:24;;;;;;;10.00;9.60;;;34.40;29.00;;;;;;5038832;28;21082;-83
2022/07/13 12:06:50;;;;;;;9.90;9.50;;;34.80;28.10;;;;;;5040935;28;20474;-80
2022/07/13 12:09:19;;;;;;;9.90;9.50;;;34.30;29.00;;;;;;5036577;28;20429;-83
2022/07/13 12:11:45;;;;;;;9.87;9.40;;;34.10;29.70;;;;;;5042000;28;20634;-84
2022/07/13 12:14:12;;;;;;;8.70;8.40;;;33.80;29.40;;;;;;5039478;28;20931;-83
2022/07/13 12:16:38;;;;;;;9.03;8.63;;;34.00;31.80;;;;;;5037231;28;20466;-84
2022/07/13 12:19:08;;;;;;;9.10;8.80;;;33.90;31.20;;;;;;5039310;28;20472;-82
2022/07/13 12:21:34;;;;;;;9.80;9.40;;;33.50;28.80;;;;;;5036845;28;20429;-81
2022/07/13 12:24:00;;;;;;;9.37;8.87;;;33.60;30.10;;;;;;5037013;28;20461;-81
2022/07/13 12:26:27;;;;;;;10.03;9.53;;;33.70;30.90;;;;;;5040072;28;20450;-81
2022/07/13 12:28:53;;;;;;;8.53;8.17;;;33.70;28.40;;;;;;5036679;28;20429;-79
2022/07/13 12:31:20;;;;;;;7.87;7.57;;;33.70;29.40;;;;;;5035677;28;20536;-82
2022/07/13 12:33:47;;;;;;;8.50;8.20;;;33.50;28.90;;;;;;5036808;28;20427;-82
2022/07/13 12:36:14;;;;;;;8.30;7.97;;;33.80;28.00;;;;;;5036114;28;20434;-83
2022/07/13 12:38:57;;;;;;;8.57;8.27;;;34.50;28.50;;;;;;5036687;28;20461;-84
2022/07/13 12:41:27;;;;;;;8.53;7.83;;;34.40;29.00;;;;;;5035725;28;20430;-81
2022/07/13 12:44:04;;;;;;;7.83;7.53;;;34.40;29.10;;;;;;5039396;28;20499;-82
2022/07/13 12:46:52;;;;;;;8.33;8.03;;;34.90;29.20;;;;;;5035790;28;20504;-82
2022/07/13 12:49:18;;;;;;;7.80;7.50;;;34.70;28.10;;;;;;5033187;28;20473;-84
2022/07/13 12:51:49;;;;;;;8.93;8.53;;;34.90;30.10;;;;;;5042539;28;20427;-82
2022/07/13 12:54:15;;;;;;;7.97;7.67;;;35.40;28.80;;;;;;5036555;28;20842;-83